Time;durP1;ratioP1;P1;durP2;ratioP2;P2;SDS_P1;SDS_P2;PMS_P1;PMS_P2;Temp;Humidity;BMP_temperature;BMP_pressure;BME280_temperature;BME280_humidity;BME280_pressure;Samples;Min_cycle;Max_cycle;Signal;HPM_P1;HPM_P2
2022/01/20 05:54:06;;;;;;;;;;;;;;;17.33;33.12;101305.59;5096318;27;1493;-61
2022/01/20 05:56:33;;;;;;;;;;;;;;;17.18;33.32;101302.75;5068090;28;1213;-63
2022/01/20 05:58:59;;;;;;;;;;;;;;;16.39;34.49;101297.69;5060342;28;1370;-57
2022/01/20 06:01:25;;;;;;;;;;;;;;;16.72;36.25;101294.97;5071900;28;1270;-60
2022/01/20 06:03:58;;;;;;;;;;;;;;;16.20;34.79;101293.63;5038057;28;2307;-57
2022/01/20 06:06:26;;;;;;;;;;;;;;;15.97;35.59;101289.28;5057784;28;1365;-57
2022/01/20 06:08:52;;;;;;;;;;;;;;;15.81;36.02;101289.09;5067701;28;1284;-57
2022/01/20 06:11:19;;;;;;;;;;;;;;;16.07;35.48;101284.75;5079426;28;1651;-58
2022/01/20 06:13:47;;;;;;;;;;;;;;;16.30;35.39;101279.19;5055975;28;1984;-56
2022/01/20 06:16:12;;;;;;;;;;;;;;;16.72;34.72;101279.31;5053846;28;1421;-57
2022/01/20 06:18:38;;;;;;;;;;;;;;;16.90;34.20;101274.53;5056686;28;1261;-57
2022/01/20 06:21:03;;;;;;;;;;;;;;;16.65;34.59;101284.19;5075820;28;1421;-55
2022/01/20 06:23:29;;;;;;;;;;;;;;;16.21;35.38;101276.09;5051446;28;1367;-58
2022/01/20 06:25:55;;;;;;;;;;;;;;;15.91;35.85;101271.94;5057109;28;1363;-63
2022/01/20 06:28:21;;;;;;;;;;;;;;;15.89;36.14;101274.94;5064082;28;1327;-61
2022/01/20 06:30:48;;;;;;;;;;;;;;;16.57;34.77;101273.69;5059019;28;1418;-60
2022/01/20 06:33:15;;;;;;;;;;;;;;;17.81;32.87;101277.22;5077506;28;1965;-61
2022/01/20 06:35:53;;;;;;;;;;;;;;;17.43;33.29;101272.66;5062289;28;1399;-62
2022/01/20 06:38:19;;;;;;;;;;;;;;;16.88;34.36;101271.19;5056436;28;1291;-63
2022/01/20 06:40:45;;;;;;;;;;;;;;;16.54;34.96;101268.72;5071900;28;1135;-64
2022/01/20 06:43:10;;;;;;;;;;;;;;;15.80;35.74;101272.91;5061996;28;1278;-62
2022/01/20 06:45:36;;;;;;;;;;;;;;;15.82;36.72;101273.47;5057315;28;1445;-59
2022/01/20 06:48:07;;;;;;;;;;;;;;;16.40;35.89;101266.41;5052326;28;1318;-62
2022/01/20 06:50:35;;;;;;;;;;;;;;;16.56;35.46;101259.16;5051863;28;1235;-60
2022/01/20 06:53:01;;;;;;;;;;;;;;;16.43;35.77;101260.38;5050444;28;1976;-64
2022/01/20 06:55:26;;;;;;;;;;;;;;;16.05;36.20;101264.97;5051700;28;1422;-60
2022/01/20 06:57:52;;;;;;;;;;;;;;;15.96;36.91;101261.00;5073419;28;1277;-64
2022/01/20 07:00:20;;;;;;;;;;;;;;;15.87;36.89;101257.91;5059920;28;1309;-59
2022/01/20 07:02:46;;;;;;;;;;;;;;;16.84;35.44;101264.56;5046900;28;1218;-64
2022/01/20 07:05:12;;;;;;;;;;;;;;;17.22;34.74;101265.38;5051160;28;1343;-59
2022/01/20 07:07:37;;;;;;;;;;;;;;;16.39;36.34;101270.22;5056176;28;1315;-60
2022/01/20 07:10:07;;;;;;;;;;;;;;;15.86;37.47;101266.41;5043906;28;1359;-59
2022/01/20 07:12:42;;;;;;;;;;;;;;;15.76;37.72;101260.78;5046341;28;1906;-61
2022/01/20 07:15:07;;;;;;;;;;;;;;;15.75;37.68;101259.91;5040394;28;1185;-64
2022/01/20 07:17:33;;;;;;;;;;;;;;;16.24;36.73;101250.88;5039198;28;1446;-65
2022/01/20 07:19:59;;;;;;;;;;;;;;;16.36;36.33;101247.97;5041540;28;1458;-64
2022/01/20 07:22:25;;;;;;;;;;;;;;;16.29;36.40;101245.44;5045749;28;1318;-62
2022/01/20 07:24:53;;;;;;;;;;;;;;;16.24;36.50;101245.38;5055871;28;1465;-65
2022/01/20 07:27:42;;;;;;;;;;;;;;;16.10;36.88;101244.16;5041730;28;1209;-61
2022/01/20 07:30:08;;;;;;;;;;;;;;;15.89;36.54;101242.03;5040678;28;1151;-59
2022/01/20 07:32:35;;;;;;;;;;;;;;;15.56;38.08;101221.06;5042178;28;1984;-62
2022/01/20 07:35:00;;;;;;;;;;;;;;;15.76;37.81;101214.16;5048512;28;1924;-62
2022/01/20 07:37:26;;;;;;;;;;;;;;;17.52;34.38;101204.25;5041982;28;1549;-60
2022/01/20 07:39:53;;;;;;;;;;;;;;;18.11;33.02;101215.97;5051213;28;1469;-62
2022/01/20 07:42:18;;;;;;;;;;;;;;;18.48;32.64;101203.84;5039312;28;1557;-64
2022/01/20 07:45:04;;;;;;;;;;;;;;;18.66;32.22;101221.75;5042275;28;1159;-62
2022/01/20 07:47:47;;;;;;;;;;;;;;;18.81;32.18;101215.41;5048559;28;1173;-60
2022/01/20 07:50:12;;;;;;;;;;;;;;;19.02;32.16;101220.91;5042807;28;1421;-58
2022/01/20 07:52:38;;;;;;;;;;;;;;;19.11;32.42;101221.97;5042389;28;1906;-64
2022/01/20 07:55:04;;;;;;;;;;;;;;;19.24;32.30;101221.41;5042768;28;1525;-61
2022/01/20 07:57:30;;;;;;;;;;;;;;;19.28;32.40;101218.91;5035154;28;1230;-63
2022/01/20 07:59:55;;;;;;;;;;;;;;;19.38;32.14;101212.53;5037879;28;1373;-65
2022/01/20 08:02:26;;;;;;;;;;;;;;;19.43;32.19;101221.63;5040573;28;1538;-63
2022/01/20 08:04:52;;;;;;;;;;;;;;;19.52;32.13;101209.97;5067721;28;1366;-61
2022/01/20 08:07:18;;;;;;;;;;;;;;;19.51;32.01;101213.84;5049521;28;1421;-59
2022/01/20 08:09:45;;;;;;;;;;;;;;;19.55;32.24;101209.44;5046715;28;1200;-61
2022/01/20 08:12:22;;;;;;;;;;;;;;;19.65;31.95;101209.38;5033857;28;1910;-60
2022/01/20 08:14:58;;;;;;;;;;;;;;;19.67;32.43;101215.44;5045342;28;1389;-58
2022/01/20 08:17:40;;;;;;;;;;;;;;;18.07;35.48;101209.34;5036118;28;1338;-59
2022/01/20 08:20:05;;;;;;;;;;;;;;;17.78;36.31;101207.91;5056561;28;1215;-58
2022/01/20 08:22:34;;;;;;;;;;;;;;;17.59;36.87;101212.25;5049817;28;1365;-58
2022/01/20 08:25:03;;;;;;;;;;;;;;;18.54;34.47;101197.25;5053100;28;1525;-58
2022/01/20 08:27:28;;;;;;;;;;;;;;;18.81;34.44;101196.94;5064297;28;1524;-60
2022/01/20 08:29:54;;;;;;;;;;;;;;;19.09;33.66;101202.16;5045633;28;1505;-60
2022/01/20 08:32:23;;;;;;;;;;;;;;;19.28;33.16;101205.13;5041783;28;1949;-60
2022/01/20 08:35:12;;;;;;;;;;;;;;;19.45;32.84;101197.31;5056373;28;1283;-59
2022/01/20 08:38:07;;;;;;;;;;;;;;;19.53;32.41;101193.16;5044198;28;1372;-61
2022/01/20 08:40:33;;;;;;;;;;;;;;;19.55;32.55;101188.16;5039300;28;1158;-58
2022/01/20 08:43:00;;;;;;;;;;;;;;;19.53;32.28;101187.66;5041671;28;1498;-59
2022/01/20 08:45:27;;;;;;;;;;;;;;;19.55;32.39;101182.66;5047742;28;1347;-64
2022/01/20 08:47:56;;;;;;;;;;;;;;;19.60;32.29;101181.78;5032696;28;1439;-62
2022/01/20 08:50:24;;;;;;;;;;;;;;;19.65;32.09;101184.53;5037519;28;1316;-64
2022/01/20 08:52:50;;;;;;;;;;;;;;;19.70;32.36;101191.94;5037643;28;1905;-63
2022/01/20 08:55:16;;;;;;;;;;;;;;;19.67;32.39;101196.13;5058008;28;1492;-58
2022/01/20 08:57:53;;;;;;;;;;;;;;;19.73;32.03;101194.97;5032203;28;1392;-52
2022/01/20 09:00:20;;;;;;;;;;;;;;;17.63;36.20;101196.84;5040296;28;1207;-58
2022/01/20 09:02:57;;;;;;;;;;;;;;;17.97;35.40;101203.84;5039933;28;1343;-58
2022/01/20 09:05:22;;;;;;;;;;;;;;;18.88;33.48;101198.63;5037802;28;1324;-54
2022/01/20 09:08:12;;;;;;;;;;;;;;;19.28;32.98;101194.09;5048731;28;1522;-59
2022/01/20 09:10:41;;;;;;;;;;;;;;;19.44;32.62;101186.56;5036899;28;1395;-59
2022/01/20 09:15:56;;;;;;;;;;;;;;;19.64;32.63;101185.63;5040127;28;1345;-57
2022/01/20 09:18:30;;;;;;;;;;;;;;;19.69;32.38;101171.00;5043195;28;1658;-53
2022/01/20 09:20:55;;;;;;;;;;;;;;;19.81;32.49;101171.50;5037999;28;1227;-58
2022/01/20 09:23:22;;;;;;;;;;;;;;;19.79;32.25;101163.50;5040386;28;1142;-58
2022/01/20 09:25:49;;;;;;;;;;;;;;;17.72;36.32;101164.16;5056118;28;1394;-55
2022/01/20 09:28:16;;;;;;;;;;;;;;;17.85;36.14;101149.03;5048018;28;1549;-58
2022/01/20 09:30:42;;;;;;;;;;;;;;;18.44;34.75;101144.97;5046601;28;1333;-59
2022/01/20 09:35:34;;;;;;;;;;;;;;;19.32;32.77;101138.09;5036454;28;1255;-58
2022/01/20 09:38:00;;;;;;;;;;;;;;;19.50;31.96;101135.78;5039346;28;1541;-59
2022/01/20 09:40:26;;;;;;;;;;;;;;;19.63;31.34;101123.31;5040738;28;1323;-60
2022/01/20 09:43:01;;;;;;;;;;;;;;;19.74;30.72;101122.13;5044639;28;1183;-60
2022/01/20 09:45:26;;;;;;;;;;;;;;;19.82;30.66;101121.56;5039060;28;1363;-58
2022/01/20 09:47:53;;;;;;;;;;;;;;;18.19;33.50;101101.75;5036036;28;1557;-59
2022/01/20 09:50:20;;;;;;;;;;;;;;;18.13;33.27;101101.75;5053516;28;1505;-60
2022/01/20 09:53:08;;;;;;;;;;;;;;;17.92;33.61;101102.84;5026888;28;1954;-61
2022/01/20 09:55:54;;;;;;;;;;;;;;;18.87;31.48;101095.00;5063444;28;1618;-59
2022/01/20 09:58:19;;;;;;;;;;;;;;;19.19;31.22;101091.03;5036968;28;1215;-59
2022/01/20 10:00:45;;;;;;;;;;;;;;;19.40;30.32;101076.00;5036132;28;1289;-57
2022/01/20 10:03:12;;;;;;;;;;;;;;;19.57;29.94;101075.63;5031429;28;1261;-58
2022/01/20 10:05:42;;;;;;;;;;;;;;;19.65;30.11;101055.69;5037992;28;1267;-61
2022/01/20 10:08:10;;;;;;;;;;;;;;;19.74;29.71;101064.19;5044859;28;1290;-59
2022/01/20 10:10:45;;;;;;;;;;;;;;;18.70;31.53;101046.56;5032374;28;1362;-62
2022/01/20 10:13:31;;;;;;;;;;;;;;;18.13;32.24;101048.63;5036873;28;1902;-59
2022/01/20 10:16:12;;;;;;;;;;;;;;;17.24;33.82;101037.88;5037195;28;1317;-60
2022/01/20 10:18:57;;;;;;;;;;;;;;;18.60;31.01;101036.41;5039915;28;1434;-60
2022/01/20 10:21:28;;;;;;;;;;;;;;;19.05;30.26;101028.22;5046442;28;1378;-59
2022/01/20 10:24:09;;;;;;;;;;;;;;;19.39;29.79;101027.50;5034858;28;1540;-57
2022/01/20 10:27:00;;;;;;;;;;;;;;;19.59;29.69;101011.91;5050043;28;1310;-58
2022/01/20 10:29:26;;;;;;;;;;;;;;;19.74;29.43;101009.00;5046872;28;1414;-59
2022/01/20 10:31:52;;;;;;;;;;;;;;;19.77;29.22;101000.16;5021661;28;1981;-58
2022/01/20 10:34:30;;;;;;;;;;;;;;;19.43;29.83;100994.63;5035807;28;1368;-62
2022/01/20 10:37:04;;;;;;;;;;;;;;;18.13;32.47;100993.59;5049780;28;1296;-63
2022/01/20 10:39:38;;;;;;;;;;;;;;;17.60;33.43;101002.16;5061264;28;1320;-63
2022/01/20 10:42:05;;;;;;;;;;;;;;;18.64;32.04;100990.66;5041271;28;1289;-61
2022/01/20 10:44:41;;;;;;;;;;;;;;;19.00;31.30;100991.63;5046016;28;1423;-62
2022/01/20 10:47:13;;;;;;;;;;;;;;;19.18;31.29;100985.47;5040870;28;1207;-62
2022/01/20 10:49:38;;;;;;;;;;;;;;;19.47;30.66;100977.25;5032806;28;1406;-61
2022/01/20 10:52:04;;;;;;;;;;;;;;;19.64;30.23;100971.31;5043379;28;1976;-62
2022/01/20 10:54:47;;;;;;;;;;;;;;;19.73;30.11;100973.44;5044778;28;1465;-61
2022/01/20 10:57:27;;;;;;;;;;;;;;;19.87;30.02;100951.53;5025843;28;1434;-61
2022/01/20 10:59:57;;;;;;;;;;;;;;;17.95;33.41;100951.81;5057087;28;1346;-61
2022/01/20 11:02:36;;;;;;;;;;;;;;;18.13;33.16;100953.16;5038533;28;1434;-61
2022/01/20 11:05:02;;;;;;;;;;;;;;;18.00;33.71;100939.97;5060151;28;1477;-63
2022/01/20 11:07:28;;;;;;;;;;;;;;;18.76;32.50;100939.91;5039983;28;1680;-61
2022/01/20 11:10:03;;;;;;;;;;;;;;;19.20;31.43;100930.03;5065201;28;1648;-62
2022/01/20 11:12:55;;;;;;;;;;;;;;;19.51;31.08;100927.81;5035979;28;1886;-64
2022/01/20 11:15:29;;;;;;;;;;;;;;;19.61;30.97;100926.91;5048820;28;1343;-64
2022/01/20 11:17:56;;;;;;;;;;;;;;;19.77;30.78;100922.91;5043205;28;1548;-64
2022/01/20 11:20:28;;;;;;;;;;;;;;;19.88;30.28;100920.88;5046081;28;1418;-70
2022/01/20 11:22:56;;;;;;;;;;;;;;;19.97;30.29;100924.63;5044706;28;1381;-62
2022/01/20 11:25:27;;;;;;;;;;;;;;;18.41;33.31;100922.47;5039725;28;1135;-60
2022/01/20 11:28:07;;;;;;;;;;;;;;;18.40;33.39;100916.16;5035796;28;1371;-63
2022/01/20 11:31:06;;;;;;;;;;;;;;;17.84;34.72;100905.31;5037672;28;1287;-63
2022/01/20 11:33:57;;;;;;;;;;;;;;;18.92;32.83;100904.88;5030826;28;1934;-61
2022/01/20 11:36:25;;;;;;;;;;;;;;;19.22;32.01;100897.47;5056687;28;1378;-59
2022/01/20 11:38:54;;;;;;;;;;;;;;;19.52;31.58;100901.91;5063076;28;1232;-63
2022/01/20 11:41:21;;;;;;;;;;;;;;;19.73;31.38;100887.91;5061381;28;1453;-62
2022/01/20 11:43:51;;;;;;;;;;;;;;;19.91;30.98;100876.13;5065206;28;1370;-60
2022/01/20 11:46:18;;;;;;;;;;;;;;;18.19;34.33;100879.66;5057653;28;1160;-59
2022/01/20 11:48:52;;;;;;;;;;;;;;;18.26;34.05;100882.09;5062932;28;1451;-62
2022/01/20 11:51:18;;;;;;;;;;;;;;;17.69;35.20;100884.19;5055508;28;1306;-61
2022/01/20 11:53:53;;;;;;;;;;;;;;;18.93;32.86;100876.22;5058257;28;1981;-62
2022/01/20 11:56:26;;;;;;;;;;;;;;;19.36;32.35;100881.09;5058104;28;1390;-61
2022/01/20 11:58:54;;;;;;;;;;;;;;;19.55;31.93;100867.41;5038512;28;1408;-63
2022/01/20 12:01:20;;;;;;;;;;;;;;;19.75;31.71;100872.69;5060792;28;1330;-61
2022/01/20 12:03:49;;;;;;;;;;;;;;;19.87;31.62;100868.75;5059306;28;1449;-60
2022/01/20 12:06:22;;;;;;;;;;;;;;;18.32;33.93;100863.63;5027139;28;1568;-60
2022/01/20 12:09:00;;;;;;;;;;;;;;;18.19;34.35;100843.03;5051250;28;1390;-60
2022/01/20 12:11:44;;;;;;;;;;;;;;;17.51;35.68;100844.34;5058547;28;1353;-59
2022/01/20 12:14:10;;;;;;;;;;;;;;;19.00;32.95;100837.28;5059794;28;1922;-58
2022/01/20 12:16:38;;;;;;;;;;;;;;;19.40;32.18;100833.34;5064880;28;1462;-60
2022/01/20 12:19:05;;;;;;;;;;;;;;;19.66;31.68;100836.66;5060110;28;1326;-65
2022/01/20 12:21:30;;;;;;;;;;;;;;;19.80;30.94;100831.28;5062030;28;1333;-62
2022/01/20 12:23:56;;;;;;;;;;;;;;;19.92;31.01;100835.56;5056756;28;1509;-61
2022/01/20 12:26:21;;;;;;;;;;;;;;;18.09;34.01;100836.47;5053798;28;1325;-60
2022/01/20 12:28:47;;;;;;;;;;;;;;;18.03;34.46;100840.34;5059724;28;1331;-62
2022/01/20 12:31:15;;;;;;;;;;;;;;;17.36;35.46;100832.28;5061103;28;1246;-61
2022/01/20 12:33:44;;;;;;;;;;;;;;;18.65;33.32;100834.50;5061082;28;1918;-63
2022/01/20 12:36:16;;;;;;;;;;;;;;;19.40;32.22;100827.00;5055401;28;1337;-61
2022/01/20 12:38:42;;;;;;;;;;;;;;;19.62;31.56;100832.84;5061959;28;1628;-60
2022/01/20 12:41:07;;;;;;;;;;;;;;;19.83;31.28;100838.97;5057826;28;1424;-62
2022/01/20 12:43:34;;;;;;;;;;;;;;;18.90;33.13;100838.19;5055533;28;1262;-62
2022/01/20 12:45:59;;;;;;;;;;;;;;;18.33;34.44;100843.22;5056942;28;1171;-63
2022/01/20 12:48:25;;;;;;;;;;;;;;;17.81;35.85;100837.94;5054513;28;1319;-61
2022/01/20 12:50:54;;;;;;;;;;;;;;;17.35;37.11;100836.13;5057698;28;1047;-67
2022/01/20 12:53:30;;;;;;;;;;;;;;;17.21;37.08;100813.88;5058927;28;1914;-61
2022/01/20 12:55:57;;;;;;;;;;;;;;;16.82;38.29;100832.84;5058591;28;1409;-63
2022/01/20 12:58:23;;;;;;;;;;;;;;;16.33;38.87;100820.41;5055507;28;1270;-50
2022/01/20 13:00:58;;;;;;;;;;;;;;;16.76;38.14;100818.28;5052197;28;1195;-60
2022/01/20 13:03:36;;;;;;;;;;;;;;;16.19;38.75;100814.59;5052846;28;1227;-59
2022/01/20 13:06:02;;;;;;;;;;;;;;;16.07;40.29;100823.06;5057897;28;1170;-58
2022/01/20 13:08:32;;;;;;;;;;;;;;;17.23;37.75;100816.34;5039337;28;1358;-59
2022/01/20 13:11:09;;;;;;;;;;;;;;;17.21;37.70;100824.06;5053591;28;1372;-59
2022/01/20 13:13:35;;;;;;;;;;;;;;;17.08;37.54;100820.78;5059476;28;1905;-59
2022/01/20 13:16:13;;;;;;;;;;;;;;;16.85;38.07;100832.28;5062006;28;1231;-59
2022/01/20 13:18:38;;;;;;;;;;;;;;;16.82;38.14;100821.84;5061643;28;1326;-60
2022/01/20 13:21:07;;;;;;;;;;;;;;;16.42;39.04;100816.88;5034624;28;1142;-60
2022/01/20 13:23:54;;;;;;;;;;;;;;;16.10;39.72;100810.72;5053879;28;1247;-58
2022/01/20 13:26:20;;;;;;;;;;;;;;;16.10;39.84;100810.72;5055053;28;1365;-62
2022/01/20 13:28:45;;;;;;;;;;;;;;;16.03;40.42;100811.81;5058594;28;1312;-61
2022/01/20 13:31:15;;;;;;;;;;;;;;;16.28;39.59;100802.00;5043658;28;1381;-60
2022/01/20 13:33:40;;;;;;;;;;;;;;;16.47;39.35;100802.31;5058130;28;1992;-58
2022/01/20 13:36:06;;;;;;;;;;;;;;;16.90;38.53;100797.44;5058830;28;1308;-58
2022/01/20 13:38:37;;;;;;;;;;;;;;;16.96;38.43;100795.50;5063247;28;1287;-57
2022/01/20 13:41:07;;;;;;;;;;;;;;;17.04;38.42;100789.47;5057484;28;1664;-57
2022/01/20 13:46:20;;;;;;;;;;;;;;;16.47;39.57;100790.53;5036853;28;1222;-56
2022/01/20 13:48:46;;;;;;;;;;;;;;;16.17;40.36;100786.59;5053212;28;1310;-56
2022/01/20 13:51:14;;;;;;;;;;;;;;;15.82;40.90;100790.88;5051414;28;1169;-56
2022/01/20 13:53:40;;;;;;;;;;;;;;;15.74;41.30;100789.47;5048078;28;1921;-57
2022/01/20 13:56:12;;;;;;;;;;;;;;;15.60;41.33;100785.53;5073909;28;1156;-56
2022/01/20 13:58:38;;;;;;;;;;;;;;;15.43;41.39;100782.97;5054140;28;1179;-57
2022/01/20 14:01:08;;;;;;;;;;;;;;;15.55;41.41;100786.34;5054325;28;1245;-56
2022/01/20 14:03:34;;;;;;;;;;;;;;;15.61;41.24;100782.53;5056442;28;1162;-59
2022/01/20 14:06:00;;;;;;;;;;;;;;;15.69;40.90;100779.28;5063221;28;1269;-58
2022/01/20 14:08:25;;;;;;;;;;;;;;;15.73;41.17;100777.66;5051835;28;1366;-58
2022/01/20 14:10:51;;;;;;;;;;;;;;;15.80;41.36;100776.63;5056506;28;1493;-58
2022/01/20 14:13:17;;;;;;;;;;;;;;;15.80;41.57;100774.69;5057458;28;1970;-56
2022/01/20 14:15:42;;;;;;;;;;;;;;;15.94;41.64;100768.72;5060225;28;1374;-56
2022/01/20 14:18:08;;;;;;;;;;;;;;;15.85;41.47;100766.50;5056024;28;1443;-57
2022/01/20 14:20:34;;;;;;;;;;;;;;;15.97;41.58;100768.19;5056953;28;1315;-56
2022/01/20 14:23:02;;;;;;;;;;;;;;;15.94;41.63;100764.06;5046072;28;1284;-57
2022/01/20 14:25:37;;;;;;;;;;;;;;;15.98;41.57;100773.38;5058056;28;1160;-56
2022/01/20 14:28:04;;;;;;;;;;;;;;;15.92;41.89;100766.22;5059973;28;1282;-56
2022/01/20 14:30:31;;;;;;;;;;;;;;;15.95;41.73;100773.09;5058552;28;1329;-57
2022/01/20 14:32:57;;;;;;;;;;;;;;;16.04;41.77;100760.50;5069621;28;1975;-60
2022/01/20 14:35:25;;;;;;;;;;;;;;;16.00;41.35;100768.44;5061722;28;1181;-56
2022/01/20 14:37:51;;;;;;;;;;;;;;;16.00;41.30;100752.00;5062937;28;850;-57
2022/01/20 14:40:17;;;;;;;;;;;;;;;15.90;41.64;100749.22;5078950;28;1448;-57
2022/01/20 14:42:43;;;;;;;;;;;;;;;15.92;41.20;100760.75;5038581;28;1580;-56
2022/01/20 14:45:09;;;;;;;;;;;;;;;15.85;41.50;100766.50;5058925;28;1289;-56
2022/01/20 14:47:35;;;;;;;;;;;;;;;15.71;41.36;100763.41;5064730;28;1058;-56
2022/01/20 14:50:00;;;;;;;;;;;;;;;15.60;41.31;100760.88;5056679;28;1273;-54
2022/01/20 14:52:26;;;;;;;;;;;;;;;15.60;42.00;100764.44;5040579;28;1914;-55
2022/01/20 14:54:52;;;;;;;;;;;;;;;17.05;39.21;100760.06;5060090;28;1133;-55
2022/01/20 14:57:19;;;;;;;;;;;;;;;17.31;38.12;100766.31;5045978;28;1350;-55
2022/01/20 14:59:45;;;;;;;;;;;;;;;16.84;39.29;100772.94;5056567;28;1388;-56
2022/01/20 15:02:10;;;;;;;;;;;;;;;16.55;39.31;100768.00;5048765;28;1319;-55
2022/01/20 15:04:36;;;;;;;;;;;;;;;16.35;39.49;100764.13;5051675;28;1499;-56
2022/01/20 15:07:01;;;;;;;;;;;;;;;16.06;40.16;100767.38;5058577;28;817;-55
2022/01/20 15:09:29;;;;;;;;;;;;;;;15.74;39.92;100760.13;5044148;28;1270;-56
2022/01/20 15:11:54;;;;;;;;;;;;;;;15.64;39.89;100767.47;5060536;28;1183;-57
2022/01/20 15:14:22;;;;;;;;;;;;;;;15.64;39.13;100771.03;5049971;28;1975;-57
2022/01/20 15:16:48;;;;;;;;;;;;;;;15.69;39.10;100767.50;5061638;28;1300;-61
2022/01/20 15:19:13;;;;;;;;;;;;;;;15.93;38.19;100772.56;5060040;28;1004;-61
2022/01/20 15:21:39;;;;;;;;;;;;;;;15.99;38.02;100772.31;5061040;28;1175;-61
2022/01/20 15:24:05;;;;;;;;;;;;;;;16.15;37.27;100778.66;5061975;28;1219;-60
2022/01/20 15:26:30;;;;;;;;;;;;;;;16.16;37.33;100769.31;5059144;28;798;-58
2022/01/20 15:28:58;;;;;;;;;;;;;;;16.23;37.04;100769.06;5058787;28;868;-56
2022/01/20 15:31:24;;;;;;;;;;;;;;;16.22;36.87;100770.16;5053740;28;1020;-57
2022/01/20 15:33:50;;;;;;;;;;;;;;;16.19;36.75;100765.22;5057490;28;1965;-57
2022/01/20 15:36:15;;;;;;;;;;;;;;;16.15;37.11;100775.09;5075543;28;833;-56
2022/01/20 15:38:41;;;;;;;;;;;;;;;16.23;36.58;100769.88;5075780;28;1539;-57
2022/01/20 15:41:07;;;;;;;;;;;;;;;16.24;36.10;100763.31;5043124;28;852;-56
2022/01/20 15:43:33;;;;;;;;;;;;;;;16.19;36.20;100776.19;5058337;28;778;-56
2022/01/20 15:45:59;;;;;;;;;;;;;;;16.18;36.42;100775.34;5065764;28;866;-57
2022/01/20 15:48:25;;;;;;;;;;;;;;;16.58;35.87;100772.97;5058132;28;815;-57
2022/01/20 15:50:51;;;;;;;;;;;;;;;16.92;35.15;100767.75;5058418;28;809;-57
2022/01/20 15:53:17;;;;;;;;;;;;;;;17.00;35.09;100769.13;5057884;28;1971;-56
2022/01/20 15:55:43;;;;;;;;;;;;;;;17.11;34.92;100769.94;5058349;28;954;-57
2022/01/20 15:58:08;;;;;;;;;;;;;;;17.17;34.72;100773.50;5059577;28;933;-57
2022/01/20 16:00:34;;;;;;;;;;;;;;;17.24;34.71;100774.03;5076515;28;1019;-57
2022/01/20 16:02:59;;;;;;;;;;;;;;;17.37;34.65;100767.94;5061649;28;1313;-59
2022/01/20 16:05:26;;;;;;;;;;;;;;;17.38;34.63;100779.78;5063441;28;1201;-57
2022/01/20 16:07:51;;;;;;;;;;;;;;;17.45;34.50;100775.63;5060967;28;943;-58
2022/01/20 16:10:16;;;;;;;;;;;;;;;17.54;34.12;100772.31;5064294;28;1024;-58
2022/01/20 16:12:42;;;;;;;;;;;;;;;17.61;34.31;100781.06;5062621;28;1902;-57
2022/01/20 16:15:08;;;;;;;;;;;;;;;17.74;33.67;100787.88;5060956;28;1212;-57
2022/01/20 16:17:33;;;;;;;;;;;;;;;17.82;33.47;100778.25;5062097;28;1200;-58
2022/01/20 16:20:00;;;;;;;;;;;;;;;17.60;33.93;100777.50;5060689;28;1164;-57
2022/01/20 16:22:26;;;;;;;;;;;;;;;17.34;34.11;100790.50;5058156;28;881;-58
2022/01/20 16:24:51;;;;;;;;;;;;;;;17.46;33.96;100784.72;5057313;28;1080;-60
2022/01/20 16:27:17;;;;;;;;;;;;;;;16.97;34.84;100788.91;5060564;28;1102;-57
2022/01/20 16:29:42;;;;;;;;;;;;;;;16.70;35.57;100798.19;5058926;28;1194;-57
2022/01/20 16:32:07;;;;;;;;;;;;;;;16.36;36.31;100795.97;5057114;28;1905;-57
2022/01/20 16:34:33;;;;;;;;;;;;;;;16.22;36.61;100786.63;5059330;28;1336;-58
2022/01/20 16:36:58;;;;;;;;;;;;;;;16.17;36.82;100803.06;5060321;28;1147;-57
2022/01/20 16:39:24;;;;;;;;;;;;;;;16.46;36.28;100805.34;5056975;28;1364;-57
2022/01/20 16:41:49;;;;;;;;;;;;;;;17.00;35.48;100807.59;5064973;28;1509;-57
2022/01/20 16:44:16;;;;;;;;;;;;;;;17.69;34.27;100807.19;5058159;28;1515;-59
2022/01/20 16:46:41;;;;;;;;;;;;;;;18.17;33.19;100803.97;5056993;28;1238;-58
2022/01/20 16:49:07;;;;;;;;;;;;;;;18.16;33.15;100810.56;5058806;28;1199;-57
2022/01/20 16:51:32;;;;;;;;;;;;;;;17.50;34.62;100804.19;5059795;28;1196;-57
2022/01/20 16:53:58;;;;;;;;;;;;;;;17.29;34.97;100804.25;5060231;28;1991;-58
2022/01/20 16:56:23;;;;;;;;;;;;;;;15.90;37.39;100801.31;5060921;28;1250;-58
2022/01/20 16:58:51;;;;;;;;;;;;;;;16.72;36.01;100796.03;5054568;28;1120;-58
2022/01/20 17:01:17;;;;;;;;;;;;;;;16.64;36.27;100793.00;5057002;28;1310;-56
2022/01/20 17:03:42;;;;;;;;;;;;;;;16.63;36.21;100797.66;5057271;28;1213;-56
2022/01/20 17:06:10;;;;;;;;;;;;;;;16.91;35.62;100790.84;5056448;28;930;-57
2022/01/20 17:08:35;;;;;;;;;;;;;;;17.14;35.46;100794.13;5055096;28;790;-55
2022/01/20 17:11:01;;;;;;;;;;;;;;;17.29;34.80;100782.25;5060533;28;1008;-56
2022/01/20 17:13:26;;;;;;;;;;;;;;;17.51;34.47;100781.13;5069210;28;1966;-55
2022/01/20 17:15:53;;;;;;;;;;;;;;;17.58;34.26;100779.69;5055953;28;824;-56
2022/01/20 17:18:20;;;;;;;;;;;;;;;17.52;34.54;100785.50;5055640;28;814;-56
2022/01/20 17:20:47;;;;;;;;;;;;;;;17.66;34.41;100791.25;5056445;28;854;-56
2022/01/20 17:23:12;;;;;;;;;;;;;;;17.79;34.17;100796.13;5055985;28;1212;-54
2022/01/20 17:25:38;;;;;;;;;;;;;;;17.74;34.26;100796.13;5056751;28;838;-54
2022/01/20 17:28:04;;;;;;;;;;;;;;;17.78;34.16;100795.31;5072687;28;817;-56
2022/01/20 17:30:29;;;;;;;;;;;;;;;17.92;33.66;100795.56;5074646;28;843;-56
2022/01/20 17:32:55;;;;;;;;;;;;;;;17.88;33.98;100793.59;5053061;28;1906;-56
2022/01/20 17:35:20;;;;;;;;;;;;;;;17.54;34.29;100799.78;5055094;28;870;-55
2022/01/20 17:37:46;;;;;;;;;;;;;;;16.64;36.19;100796.56;5056211;28;826;-54
2022/01/20 17:40:12;;;;;;;;;;;;;;;16.05;37.37;100782.19;5070520;28;864;-55
2022/01/20 17:42:37;;;;;;;;;;;;;;;16.50;36.43;100800.94;5075474;28;861;-56
2022/01/20 17:45:03;;;;;;;;;;;;;;;16.36;36.70;100798.72;5075523;28;786;-53
2022/01/20 17:47:29;;;;;;;;;;;;;;;16.21;37.10;100785.78;5056896;28;962;-55
2022/01/20 17:49:55;;;;;;;;;;;;;;;16.11;37.03;100783.03;5056120;28;1013;-55
2022/01/20 17:52:23;;;;;;;;;;;;;;;16.50;36.45;100781.72;5056700;28;1913;-55
2022/01/20 17:54:49;;;;;;;;;;;;;;;17.03;35.47;100779.56;5032141;28;737;-55
2022/01/20 17:57:14;;;;;;;;;;;;;;;17.47;34.72;100769.84;5049472;28;868;-56
2022/01/20 17:59:42;;;;;;;;;;;;;;;17.89;34.05;100767.75;5055793;28;837;-55
2022/01/20 18:02:07;;;;;;;;;;;;;;;18.02;33.63;100752.59;5068073;28;986;-55
2022/01/20 18:04:33;;;;;;;;;;;;;;;17.59;34.26;100759.34;5067789;28;927;-55
2022/01/20 18:06:58;;;;;;;;;;;;;;;16.54;36.38;100760.88;5056108;28;822;-56
2022/01/20 18:09:24;;;;;;;;;;;;;;;16.46;36.82;100775.13;5056173;28;850;-51
2022/01/20 18:11:49;;;;;;;;;;;;;;;16.53;36.65;100775.69;5067025;28;1083;-56
2022/01/20 18:14:15;;;;;;;;;;;;;;;16.53;36.51;100773.75;5074930;28;1945;-54
2022/01/20 18:16:40;;;;;;;;;;;;;;;16.61;36.19;100777.91;5059265;28;890;-54
2022/01/20 18:19:06;;;;;;;;;;;;;;;16.92;35.78;100783.41;5072645;28;814;-55
2022/01/20 18:21:31;;;;;;;;;;;;;;;17.14;35.34;100790.53;5075042;28;907;-56
2022/01/20 18:23:57;;;;;;;;;;;;;;;17.32;35.05;100792.72;5075280;28;821;-56
2022/01/20 18:26:22;;;;;;;;;;;;;;;17.52;34.58;100788.25;5074756;28;972;-57
2022/01/20 18:28:48;;;;;;;;;;;;;;;17.62;34.55;100788.22;5074580;28;817;-56
2022/01/20 18:31:14;;;;;;;;;;;;;;;17.63;34.36;100781.63;5057034;28;840;-56
2022/01/20 18:33:39;;;;;;;;;;;;;;;17.71;34.21;100782.97;5056104;28;1894;-56
2022/01/20 18:36:05;;;;;;;;;;;;;;;17.91;34.13;100790.34;5055539;28;790;-57
2022/01/20 18:38:30;;;;;;;;;;;;;;;17.89;33.77;100798.84;5055585;28;766;-56
2022/01/20 18:40:56;;;;;;;;;;;;;;;17.83;34.01;100799.16;5055807;28;862;-56
2022/01/20 18:43:22;;;;;;;;;;;;;;;16.90;35.77;100805.66;5061960;28;837;-54
2022/01/20 18:45:48;;;;;;;;;;;;;;;16.71;36.49;100810.84;5069940;28;847;-56
2022/01/20 18:48:13;;;;;;;;;;;;;;;16.06;37.44;100811.28;5050280;28;1215;-56
2022/01/20 18:50:39;;;;;;;;;;;;;;;17.16;35.39;100804.81;5050439;28;1349;-56
2022/01/20 18:53:05;;;;;;;;;;;;;;;17.38;35.22;100799.84;5052565;28;1963;-56
2022/01/20 18:55:31;;;;;;;;;;;;;;;17.52;34.95;100808.31;5039480;28;1183;-54